Time;durP1;ratioP1;P1;durP2;ratioP2;P2;SDS_P1;SDS_P2;PMS_P1;PMS_P2;Temp;Humidity;BMP_temperature;BMP_pressure;BME280_temperature;BME280_humidity;BME280_pressure;Samples;Min_cycle;Max_cycle;Signal;HPM_P1;HPM_P2
2023/04/09 00:00:35;;;;;;;13.87;12.47;;;8.70;99.90;;;;;;5099579;28;20540;-43
2023/04/09 00:03:00;;;;;;;13.90;12.50;;;8.60;99.90;;;;;;5098924;28;20255;-40
2023/04/09 00:05:26;;;;;;;14.17;12.87;;;8.60;1.00;;;;;;5099431;28;20425;-40
2023/04/09 00:07:52;;;;;;;13.80;12.50;;;8.60;1.00;;;;;;5098865;28;20419;-41
2023/04/09 00:10:18;;;;;;;13.40;12.00;;;8.50;1.00;;;;;;5098086;28;20180;-42
2023/04/09 00:12:44;;;;;;;12.50;11.40;;;8.50;1.00;;;;;;5098551;28;20187;-39
2023/04/09 00:15:10;;;;;;;13.30;12.20;;;8.50;1.00;;;;;;5099318;28;20191;-40
2023/04/09 00:17:35;;;;;;;13.17;11.97;;;8.50;1.00;;;;;;5097497;28;20760;-41
2023/04/09 00:20:01;;;;;;;13.50;12.20;;;8.50;1.00;;;;;;5098069;28;20422;-42
2023/04/09 00:22:27;;;;;;;13.30;12.10;;;8.50;1.00;;;;;;5098071;28;20169;-42
2023/04/09 00:24:52;;;;;;;12.90;11.70;;;8.50;1.00;;;;;;5098078;28;20245;-41
2023/04/09 00:27:18;;;;;;;12.57;11.37;;;8.50;1.00;;;;;;5098768;28;20193;-41
2023/04/09 00:29:44;;;;;;;12.40;11.30;;;8.50;1.00;;;;;;5098523;28;20571;-48
2023/04/09 00:32:10;;;;;;;12.97;11.77;;;8.50;18.80;;;;;;5099382;28;20269;-41
2023/04/09 00:34:35;;;;;;;14.07;12.67;;;8.50;58.70;;;;;;5098903;28;20188;-40
2023/04/09 00:37:01;;;;;;;12.93;11.73;;;8.50;99.90;;;;;;5098988;28;20204;-40
2023/04/09 00:39:27;;;;;;;14.20;12.90;;;8.50;99.90;;;;;;5099306;28;20502;-40
2023/04/09 00:41:57;;;;;;;13.80;12.50;;;8.50;99.90;;;;;;5097567;28;20450;-40
2023/04/09 00:44:24;;;;;;;14.17;12.77;;;8.50;99.90;;;;;;5098892;28;20184;-43
2023/04/09 00:46:50;;;;;;;14.40;13.07;;;8.50;99.90;;;;;;5096116;28;20438;-40
2023/04/09 00:49:16;;;;;;;13.67;12.27;;;8.40;99.90;;;;;;5095654;28;20439;-41
2023/04/09 00:51:42;;;;;;;13.60;12.30;;;8.40;99.90;;;;;;5093749;28;20520;-42
2023/04/09 00:54:07;;;;;;;13.50;12.30;;;8.40;99.90;;;;;;5093818;28;20560;-40
2023/04/09 00:56:33;;;;;;;14.73;13.33;;;8.40;99.90;;;;;;5093134;28;20498;-41
2023/04/09 00:58:59;;;;;;;12.60;11.50;;;8.40;99.90;;;;;;5094410;28;20650;-43
2023/04/09 01:01:25;;;;;;;15.00;13.53;;;8.40;99.90;;;;;;5094063;28;20212;-41
2023/04/09 01:03:51;;;;;;;13.57;12.27;;;8.40;99.90;;;;;;5094792;28;20461;-40
2023/04/09 01:06:54;;;;;;;13.27;12.17;;;8.40;99.90;;;;;;5095038;28;20283;-42
2023/04/09 01:09:42;;;;;;;13.17;11.97;;;8.40;99.90;;;;;;5012944;28;20192;-40
2023/04/09 01:12:31;;;;;;;14.40;12.93;;;8.40;99.90;;;;;;5097168;28;20779;-41
2023/04/09 01:15:17;;;;;;;15.63;14.23;;;8.40;1.00;;;;;;5097453;28;20411;-43
2023/04/09 01:17:51;;;;;;;14.07;12.70;;;8.40;1.00;;;;;;5096532;28;20470;-40
2023/04/09 01:20:26;;;;;;;13.47;12.27;;;8.40;1.00;;;;;;5096057;28;20410;-42
2023/04/09 01:22:55;;;;;;;14.30;12.90;;;8.40;1.00;;;;;;5094220;28;20428;-41
2023/04/09 01:25:38;;;;;;;13.20;12.00;;;8.40;1.00;;;;;;5092420;28;20418;-42
2023/04/09 01:28:04;;;;;;;13.50;12.30;;;8.30;1.00;;;;;;5093372;28;20854;-42
2023/04/09 01:30:30;;;;;;;14.73;13.23;;;8.30;1.00;;;;;;5092438;28;20573;-42
2023/04/09 01:32:57;;;;;;;14.87;13.40;;;8.40;1.00;;;;;;5091412;28;20184;-42
2023/04/09 01:35:23;;;;;;;15.60;14.10;;;8.30;1.00;;;;;;5092587;28;20415;-42
2023/04/09 01:37:51;;;;;;;15.23;13.80;;;8.30;1.00;;;;;;5093302;28;20561;-42
2023/04/09 01:40:16;;;;;;;15.23;13.63;;;8.30;1.00;;;;;;5093495;28;20458;-41
2023/04/09 01:42:42;;;;;;;15.60;14.10;;;8.30;1.00;;;;;;5094710;28;20484;-41
2023/04/09 01:45:10;;;;;;;16.00;14.50;;;8.30;1.00;;;;;;5094440;28;20188;-41
2023/04/09 01:47:35;;;;;;;15.50;14.07;;;8.30;1.00;;;;;;5094200;28;20208;-41
2023/04/09 01:50:02;;;;;;;14.63;13.23;;;8.30;1.00;;;;;;5095276;28;20446;-43
2023/04/09 01:55:49;;;;;;;16.10;14.50;;;8.20;1.00;;;;;;5094097;28;20532;-42
2023/04/09 01:58:15;;;;;;;15.47;13.97;;;8.20;1.00;;;;;;5093716;28;20555;-41
2023/04/09 02:00:47;;;;;;;15.63;13.93;;;8.20;1.00;;;;;;5093833;28;20512;-43
2023/04/09 02:03:25;;;;;;;14.80;13.40;;;8.20;1.00;;;;;;5093553;28;20249;-40
2023/04/09 02:06:13;;;;;;;13.63;12.43;;;8.20;1.00;;;;;;5057118;28;20427;-43
2023/04/09 02:08:44;;;;;;;15.40;14.00;;;8.20;1.00;;;;;;5074242;28;20426;-42
2023/04/09 02:11:14;;;;;;;15.00;13.60;;;8.20;1.00;;;;;;5074539;28;20439;-41
2023/04/09 02:13:40;;;;;;;15.43;13.83;;;8.20;1.00;;;;;;5076124;28;20420;-41
2023/04/09 02:16:07;;;;;;;15.40;13.90;;;8.20;1.00;;;;;;5085624;28;20441;-40
2023/04/09 02:18:33;;;;;;;14.67;13.27;;;8.20;7.50;;;;;;5094777;28;20423;-43
2023/04/09 02:20:59;;;;;;;15.47;14.03;;;8.20;24.80;;;;;;5094072;28;20413;-41
2023/04/09 02:23:28;;;;;;;15.60;14.20;;;8.20;33.60;;;;;;5095872;28;20200;-42
2023/04/09 02:25:54;;;;;;;16.30;14.80;;;8.10;48.60;;;;;;5094993;28;20506;-41
2023/04/09 02:28:20;;;;;;;14.97;13.57;;;8.20;68.90;;;;;;5095386;28;20533;-42
2023/04/09 02:30:46;;;;;;;15.37;13.90;;;8.10;99.90;;;;;;5095672;28;20212;-41
2023/04/09 02:33:11;;;;;;;14.20;12.90;;;8.10;99.90;;;;;;5077917;28;20453;-41
2023/04/09 02:35:37;;;;;;;15.13;13.73;;;8.10;99.90;;;;;;5094042;28;20271;-43
2023/04/09 02:38:03;;;;;;;14.77;13.37;;;8.10;99.90;;;;;;5096062;28;20271;-40
2023/04/09 02:40:30;;;;;;;15.10;13.60;;;8.10;99.90;;;;;;5098746;28;20191;-43
2023/04/09 02:42:57;;;;;;;13.60;12.40;;;8.10;99.90;;;;;;5097274;28;20180;-42
2023/04/09 02:45:22;;;;;;;15.07;13.77;;;8.10;99.90;;;;;;5098447;28;20704;-41
2023/04/09 02:47:48;;;;;;;15.07;13.67;;;8.10;99.90;;;;;;5097248;28;20422;-41
2023/04/09 02:50:13;;;;;;;15.77;14.30;;;8.10;99.90;;;;;;5098903;28;20184;-41
2023/04/09 02:52:39;;;;;;;14.83;13.53;;;8.10;99.90;;;;;;5097708;28;20179;-43
2023/04/09 02:55:05;;;;;;;13.67;12.37;;;8.00;99.90;;;;;;5096031;28;20245;-41
2023/04/09 02:57:32;;;;;;;15.20;13.70;;;8.00;99.90;;;;;;5097412;28;20208;-41
2023/04/09 02:59:57;;;;;;;13.97;12.67;;;8.00;99.90;;;;;;5098715;28;20448;-44
2023/04/09 03:02:23;;;;;;;14.63;13.30;;;8.00;99.90;;;;;;5098810;28;20836;-40
2023/04/09 03:04:49;;;;;;;14.43;12.90;;;8.00;99.90;;;;;;5098105;28;20494;-40
2023/04/09 03:07:15;;;;;;;14.33;12.87;;;8.00;99.90;;;;;;5099113;28;20333;-45
2023/04/09 03:09:40;;;;;;;15.17;13.63;;;8.00;99.90;;;;;;5099526;28;20418;-42
2023/04/09 03:12:06;;;;;;;14.33;12.93;;;8.00;1.00;;;;;;5099099;28;20551;-43
2023/04/09 03:14:32;;;;;;;13.30;12.20;;;7.90;1.00;;;;;;5097512;28;20249;-40
2023/04/09 03:16:57;;;;;;;15.33;13.93;;;8.00;1.00;;;;;;5098274;28;20286;-40
2023/04/09 03:19:23;;;;;;;15.93;14.33;;;7.90;1.00;;;;;;5098006;28;20176;-40
2023/04/09 03:21:50;;;;;;;14.07;12.67;;;7.90;1.00;;;;;;5097326;28;20187;-39
2023/04/09 03:24:16;;;;;;;14.50;13.13;;;7.90;1.00;;;;;;5095197;28;20183;-41
2023/04/09 03:26:41;;;;;;;15.57;13.97;;;7.90;1.00;;;;;;5095331;28;20454;-41
2023/04/09 03:29:07;;;;;;;16.30;13.33;;;7.90;1.00;;;;;;5095635;28;20795;-40
2023/04/09 03:31:33;;;;;;;14.43;13.03;;;7.80;1.00;;;;;;5095682;28;20202;-40
2023/04/09 03:33:59;;;;;;;14.33;12.90;;;7.80;1.00;;;;;;5093371;28;20201;-41
2023/04/09 03:36:26;;;;;;;14.03;12.73;;;7.80;1.00;;;;;;5110050;28;20444;-42
2023/04/09 03:38:52;;;;;;;14.23;12.90;;;7.80;1.00;;;;;;5095256;28;20241;-41
2023/04/09 03:41:18;;;;;;;14.73;13.37;;;7.80;1.00;;;;;;5094456;28;20442;-41
2023/04/09 03:43:44;;;;;;;15.43;13.97;;;7.80;1.00;;;;;;5095193;28;20191;-40
2023/04/09 03:46:16;;;;;;;14.40;13.10;;;7.80;1.00;;;;;;5096749;28;20176;-40
2023/04/09 03:48:43;;;;;;;15.23;13.43;;;7.80;1.00;;;;;;5095920;28;20423;-40
2023/04/09 03:51:15;;;;;;;15.77;14.17;;;7.70;1.00;;;;;;5095400;28;20418;-42
2023/04/09 03:53:41;;;;;;;14.33;12.83;;;7.70;3.00;;;;;;5095068;28;20471;-47
2023/04/09 03:56:07;;;;;;;16.73;15.03;;;7.70;49.40;;;;;;5095244;28;20407;-42
2023/04/09 03:58:33;;;;;;;17.27;15.40;;;7.70;99.90;;;;;;5095739;28;20769;-42
2023/04/09 04:00:59;;;;;;;19.00;17.07;;;7.70;99.90;;;;;;5096421;28;20498;-39
2023/04/09 04:03:25;;;;;;;17.47;15.87;;;7.70;99.90;;;;;;5097045;28;20188;-40
2023/04/09 04:05:51;;;;;;;18.20;16.30;;;7.70;99.90;;;;;;5095851;28;20306;-40
2023/04/09 04:08:16;;;;;;;17.40;15.73;;;7.60;99.90;;;;;;5097234;28;20187;-42
2023/04/09 04:10:42;;;;;;;16.60;15.10;;;7.60;99.90;;;;;;5097088;28;20233;-41
2023/04/09 04:13:08;;;;;;;17.67;15.93;;;7.60;99.90;;;;;;5097140;28;20181;-40
2023/04/09 04:15:42;;;;;;;16.60;14.80;;;7.60;99.90;;;;;;5095030;28;20176;-41
2023/04/09 04:18:08;;;;;;;16.87;15.10;;;7.60;99.90;;;;;;5095156;28;20466;-41
2023/04/09 04:20:35;;;;;;;17.70;16.00;;;7.60;99.90;;;;;;5094696;28;20824;-40
2023/04/09 04:23:01;;;;;;;17.27;15.47;;;7.60;99.90;;;;;;5095863;28;20418;-40
2023/04/09 04:25:26;;;;;;;16.60;14.97;;;7.60;99.90;;;;;;5096948;28;20527;-42
2023/04/09 04:27:53;;;;;;;16.93;15.37;;;7.60;99.90;;;;;;5095651;28;20426;-40
2023/04/09 04:30:22;;;;;;;17.43;15.70;;;7.60;99.90;;;;;;5096667;28;20228;-42
2023/04/09 04:32:48;;;;;;;15.63;14.13;;;7.60;99.90;;;;;;5097886;28;20927;-41
2023/04/09 04:35:14;;;;;;;16.90;15.20;;;7.60;99.90;;;;;;5097828;28;20422;-42
2023/04/09 04:37:40;;;;;;;15.10;13.60;;;7.60;99.90;;;;;;5097988;28;20705;-41
2023/04/09 04:40:07;;;;;;;15.40;14.00;;;7.60;99.90;;;;;;5097469;28;20909;-40
2023/04/09 04:42:33;;;;;;;15.63;13.80;;;7.60;99.90;;;;;;5097702;28;20507;-42
2023/04/09 04:44:59;;;;;;;15.60;14.10;;;7.60;99.90;;;;;;5097781;28;20729;-41
2023/04/09 04:47:24;;;;;;;15.07;13.60;;;7.60;99.90;;;;;;5097205;28;20516;-43
2023/04/09 04:49:50;;;;;;;15.27;13.80;;;7.60;99.90;;;;;;5096788;28;20184;-40
2023/04/09 04:52:16;;;;;;;14.50;13.10;;;7.60;99.90;;;;;;5096638;28;20575;-40
2023/04/09 04:54:42;;;;;;;16.07;14.40;;;7.60;99.90;;;;;;5096806;28;20665;-40
2023/04/09 04:57:07;;;;;;;15.30;13.90;;;7.60;99.90;;;;;;5096217;28;20498;-40
2023/04/09 04:59:37;;;;;;;14.23;12.90;;;7.60;99.90;;;;;;5092691;28;20184;-44
2023/04/09 05:02:03;;;;;;;15.97;14.47;;;7.60;99.90;;;;;;5095323;28;20188;-43
2023/04/09 05:04:28;;;;;;;15.27;13.70;;;7.60;99.90;;;;;;5096589;28;20426;-42
2023/04/09 05:06:55;;;;;;;15.20;13.70;;;7.70;99.90;;;;;;5097115;28;20188;-40
2023/04/09 05:09:20;;;;;;;16.10;14.50;;;7.70;99.90;;;;;;5094411;28;20195;-41
2023/04/09 05:11:46;;;;;;;15.70;14.23;;;7.70;99.90;;;;;;5094800;28;20939;-40
2023/04/09 05:14:12;;;;;;;15.60;14.13;;;7.70;99.90;;;;;;5094468;28;21145;-41
2023/04/09 05:16:37;;;;;;;15.60;14.20;;;7.80;99.90;;;;;;5094630;28;20199;-43
2023/04/09 05:19:03;;;;;;;16.27;14.70;;;7.80;99.90;;;;;;5095704;28;20701;-41
2023/04/09 05:21:30;;;;;;;14.57;13.17;;;7.90;45.70;;;;;;5095498;28;20426;-41
2023/04/09 05:23:56;;;;;;;15.47;14.10;;;7.90;5.80;;;;;;5094696;28;20176;-43
2023/04/09 05:26:22;;;;;;;16.33;14.87;;;8.00;1.00;;;;;;5095354;28;20429;-42
2023/04/09 05:28:48;;;;;;;15.30;13.80;;;8.00;1.00;;;;;;5094476;28;20506;-42
2023/04/09 05:31:14;;;;;;;15.10;13.60;;;8.10;1.00;;;;;;5093750;28;20549;-41
2023/04/09 05:33:41;;;;;;;15.33;13.80;;;8.10;1.00;;;;;;5094358;28;20453;-43
2023/04/09 05:36:07;;;;;;;15.60;14.20;;;8.20;1.00;;;;;;5093373;28;20176;-42
2023/04/09 05:38:33;;;;;;;16.03;14.43;;;8.30;99.90;;;;;;5095052;28;20487;-40
2023/04/09 05:40:59;;;;;;;14.17;12.77;;;8.30;99.90;;;;;;5094887;28;20422;-41
2023/04/09 05:43:25;;;;;;;14.50;13.20;;;8.40;99.90;;;;;;5094594;28;20816;-40
2023/04/09 05:45:50;;;;;;;15.13;13.77;;;8.50;99.90;;;;;;5095094;28;20421;-44
2023/04/09 05:48:18;;;;;;;14.23;12.93;;;8.60;99.90;;;;;;5095460;28;20187;-40
2023/04/09 05:50:51;;;;;;;14.93;13.53;;;8.60;41.00;;;;;;5096323;28;20196;-41
2023/04/09 05:53:19;;;;;;;14.40;13.00;;;8.70;1.00;;;;;;5096928;28;20449;-41
2023/04/09 05:55:45;;;;;;;14.57;13.17;;;8.80;1.00;;;;;;5096487;28;20531;-40
2023/04/09 05:58:12;;;;;;;14.70;13.20;;;8.90;1.00;;;;;;5095800;28;20626;-41
2023/04/09 06:00:38;;;;;;;15.57;14.07;;;9.00;1.00;;;;;;5096059;28;20913;-42
2023/04/09 06:03:04;;;;;;;15.20;13.70;;;9.20;99.90;;;;;;5096448;28;20477;-41
2023/04/09 06:05:29;;;;;;;16.43;14.80;;;9.30;99.90;;;;;;5096903;28;20191;-43
2023/04/09 06:07:55;;;;;;;15.50;14.00;;;9.40;99.90;;;;;;5096366;28;20434;-41
2023/04/09 06:10:21;;;;;;;14.33;13.03;;;9.50;99.90;;;;;;5095227;28;20204;-42
2023/04/09 06:12:55;;;;;;;13.90;12.70;;;9.60;16.40;;;;;;5094800;28;20426;-39
2023/04/09 06:15:21;;;;;;;13.27;11.97;;;9.80;1.00;;;;;;5094395;28;20183;-41
2023/04/09 06:17:47;;;;;;;14.93;13.53;;;10.10;1.00;;;;;;5093344;28;20526;-43
2023/04/09 06:20:12;;;;;;;15.07;13.77;;;10.50;1.00;;;;;;5090752;28;20267;-42
2023/04/09 06:22:38;;;;;;;13.97;12.67;;;11.00;99.90;;;;;;5092417;28;20172;-43
2023/04/09 06:25:04;;;;;;;14.20;13.00;;;11.40;1.00;;;;;;5091182;28;20169;-41
2023/04/09 06:27:30;;;;;;;16.57;15.07;;;11.80;1.00;;;;;;5091073;28;20184;-41
2023/04/09 06:29:55;;;;;;;15.00;13.60;;;12.10;99.90;;;;;;5091001;28;20531;-40
2023/04/09 06:32:21;;;;;;;14.97;13.50;;;12.40;99.90;;;;;;5092194;28;20241;-41
2023/04/09 06:34:47;;;;;;;15.47;14.07;;;12.60;99.90;;;;;;5093333;28;20184;-43
2023/04/09 06:37:12;;;;;;;15.30;13.90;;;12.70;99.90;;;;;;5094145;28;20477;-44
2023/04/09 06:39:40;;;;;;;17.07;15.47;;;12.80;54.70;;;;;;5093111;28;20618;-42
2023/04/09 06:42:06;;;;;;;15.40;14.00;;;13.00;7.90;;;;;;5091897;28;20442;-42
2023/04/09 06:44:33;;;;;;;14.30;13.00;;;13.00;1.00;;;;;;5094209;28;20474;-41
2023/04/09 06:46:59;;;;;;;15.43;13.27;;;13.10;1.00;;;;;;5094243;28;20343;-40
2023/04/09 06:49:25;;;;;;;15.07;13.57;;;13.20;1.00;;;;;;5094022;28;20870;-41
2023/04/09 06:51:52;;;;;;;13.77;12.40;;;13.30;1.00;;;;;;5091595;28;20256;-40
2023/04/09 06:54:18;;;;;;;13.77;12.57;;;13.40;1.00;;;;;;5092266;28;20503;-40
2023/04/09 06:56:44;;;;;;;14.03;12.60;;;13.50;1.00;;;;;;5091681;28;20477;-40
2023/04/09 06:59:10;;;;;;;13.33;12.17;;;13.70;1.00;;;;;;5094158;28;20847;-40
2023/04/09 07:01:36;;;;;;;12.50;11.40;;;13.90;1.00;;;;;;5094006;28;20176;-43
2023/04/09 07:04:02;;;;;;;12.10;11.00;;;13.90;1.00;;;;;;5095994;28;20410;-44
2023/04/09 07:06:28;;;;;;;13.83;12.43;;;14.00;1.00;;;;;;5093589;28;20426;-41
2023/04/09 07:08:54;;;;;;;12.73;11.57;;;14.30;1.00;;;;;;5093775;28;20796;-39
2023/04/09 07:11:20;;;;;;;12.10;10.90;;;14.50;1.00;;;;;;5094652;28;20191;-41
2023/04/09 07:13:46;;;;;;;12.63;11.43;;;14.80;1.00;;;;;;5094881;28;20187;-40
2023/04/09 07:16:11;;;;;;;12.47;11.43;;;15.10;1.00;;;;;;5095423;28;20517;-40
2023/04/09 07:18:37;;;;;;;10.07;9.27;;;15.60;1.00;;;;;;5094899;28;20238;-43
2023/04/09 07:21:03;;;;;;;10.87;9.87;;;16.00;1.00;;;;;;5094789;28;20169;-40
2023/04/09 07:23:28;;;;;;;9.80;9.00;;;16.50;1.00;;;;;;5096921;28;20631;-43
2023/04/09 07:25:54;;;;;;;10.23;9.23;;;16.80;1.00;;;;;;5096895;28;20226;-40
2023/04/09 07:28:20;;;;;;;9.13;8.33;;;17.00;1.00;;;;;;5097295;28;20482;-42
2023/04/09 07:30:46;;;;;;;8.93;8.13;;;17.40;1.00;;;;;;5095757;28;20617;-42
2023/04/09 07:33:12;;;;;;;8.57;7.87;;;17.70;1.00;;;;;;5097657;28;20176;-40
2023/04/09 07:35:37;;;;;;;9.30;8.50;;;18.10;1.00;;;;;;5097186;28;20204;-42
2023/04/09 07:38:03;;;;;;;8.60;7.90;;;18.40;1.00;;;;;;5096940;28;20680;-41
2023/04/09 07:40:29;;;;;;;7.93;7.33;;;18.60;1.00;;;;;;5094128;28;20172;-43
2023/04/09 07:42:54;;;;;;;8.83;8.03;;;19.00;1.00;;;;;;5094688;28;20176;-41
2023/04/09 07:45:20;;;;;;;9.30;8.50;;;19.40;1.00;;;;;;5093888;28;20187;-42
2023/04/09 07:47:46;;;;;;;9.50;8.60;;;19.60;1.00;;;;;;5094802;28;20180;-41
2023/04/09 07:50:12;;;;;;;8.33;7.63;;;19.70;1.00;;;;;;5094648;28;20422;-41
2023/04/09 07:52:38;;;;;;;7.20;6.60;;;20.30;1.00;;;;;;5093169;28;20165;-41
2023/04/09 07:55:04;;;;;;;7.37;6.77;;;20.90;1.00;;;;;;5094413;28;20457;-44
2023/04/09 07:57:32;;;;;;;8.80;8.00;;;21.60;1.00;;;;;;5093472;28;20299;-43
2023/04/09 07:59:58;;;;;;;8.77;8.07;;;22.40;1.00;;;;;;5094388;28;20797;-43
2023/04/09 08:02:24;;;;;;;7.43;6.83;;;22.40;1.00;;;;;;5094785;28;20475;-42
2023/04/09 08:04:50;;;;;;;7.27;6.67;;;22.00;1.00;;;;;;5095688;28;20255;-41
2023/04/09 08:07:15;;;;;;;7.23;6.63;;;22.30;1.00;;;;;;5094473;28;20253;-41
2023/04/09 08:09:41;;;;;;;7.53;6.93;;;22.90;1.00;;;;;;5095733;28;20518;-41
2023/04/09 08:12:07;;;;;;;7.20;6.50;;;23.10;1.00;;;;;;5095602;28;20173;-41
2023/04/09 08:14:33;;;;;;;6.60;6.10;;;22.80;1.00;;;;;;5094196;28;20314;-43
2023/04/09 08:16:59;;;;;;;7.50;6.80;;;22.20;1.00;;;;;;5094967;28;20196;-42
2023/04/09 08:19:25;;;;;;;6.60;6.10;;;21.60;1.00;;;;;;5093767;28;20184;-42
2023/04/09 08:21:51;;;;;;;7.70;7.10;;;20.90;1.00;;;;;;5094179;28;20957;-40
2023/04/09 08:24:17;;;;;;;6.70;6.20;;;20.60;1.00;;;;;;5092497;28;20365;-42
2023/04/09 08:26:42;;;;;;;7.40;6.70;;;21.50;1.00;;;;;;5094873;28;20487;-41
2023/04/09 08:29:10;;;;;;;6.87;6.37;;;22.30;1.00;;;;;;5094296;28;20466;-42
2023/04/09 08:31:36;;;;;;;6.73;6.23;;;22.50;1.00;;;;;;5094839;28;20242;-42
2023/04/09 08:34:02;;;;;;;4.90;4.50;;;23.30;1.00;;;;;;5095182;28;20446;-44
2023/04/09 08:36:27;;;;;;;6.00;5.50;;;24.60;1.00;;;;;;5095235;28;20426;-41
2023/04/09 08:38:55;;;;;;;5.50;5.10;;;25.60;1.00;;;;;;5094147;28;20836;-42
2023/04/09 08:41:24;;;;;;;6.30;5.70;;;25.40;1.00;;;;;;5094060;28;20187;-44
2023/04/09 08:43:51;;;;;;;5.93;5.40;;;24.80;1.00;;;;;;5095418;28;20841;-41
2023/04/09 08:46:18;;;;;;;5.43;5.03;;;25.40;1.00;;;;;;5095454;28;20426;-39
2023/04/09 08:48:45;;;;;;;4.40;4.10;;;26.40;1.00;;;;;;5094029;28;20407;-43
2023/04/09 08:51:15;;;;;;;5.30;4.90;;;27.50;1.00;;;;;;5093710;28;20521;-44
2023/04/09 08:53:51;;;;;;;6.10;5.53;;;28.40;1.00;;;;;;5095575;28;20638;-40
2023/04/09 08:56:17;;;;;;;5.60;5.20;;;29.50;1.00;;;;;;5093089;28;20457;-40
2023/04/09 08:58:43;;;;;;;5.63;5.13;;;30.10;1.00;;;;;;5093984;28;20439;-43
2023/04/09 09:01:25;;;;;;;5.00;4.60;;;29.60;1.00;;;;;;5095402;28;20696;-41
2023/04/09 09:04:02;;;;;;;4.53;4.13;;;28.30;1.00;;;;;;5093302;28;20405;-42
2023/04/09 09:06:39;;;;;;;5.20;4.80;;;26.70;1.00;;;;;;5073859;28;20430;-42
2023/04/09 09:09:06;;;;;;;5.30;4.90;;;25.80;1.00;;;;;;5091559;28;20426;-41
2023/04/09 09:11:36;;;;;;;5.00;4.60;;;25.80;1.00;;;;;;5092687;28;20912;-43
2023/04/09 09:14:03;;;;;;;4.57;4.17;;;25.60;1.00;;;;;;5094097;28;20413;-40
2023/04/09 09:16:31;;;;;;;4.73;4.33;;;25.80;1.00;;;;;;5092774;28;20418;-38
2023/04/09 09:18:57;;;;;;;5.43;5.03;;;25.40;1.00;;;;;;5094742;28;20453;-40
2023/04/09 09:21:26;;;;;;;5.50;5.10;;;25.10;1.00;;;;;;5094303;28;20450;-41
2023/04/09 09:23:52;;;;;;;4.53;4.23;;;25.80;1.00;;;;;;5092999;28;20192;-40
2023/04/09 09:26:20;;;;;;;5.00;4.60;;;26.40;1.00;;;;;;5093046;28;20418;-41
2023/04/09 09:28:47;;;;;;;6.10;5.60;;;27.10;1.00;;;;;;5092184;28;20466;-40
2023/04/09 09:31:13;;;;;;;5.20;4.80;;;27.90;1.00;;;;;;5093879;28;20426;-42
2023/04/09 09:33:40;;;;;;;5.80;5.40;;;28.90;1.00;;;;;;5096186;28;20417;-44
2023/04/09 09:36:08;;;;;;;6.27;5.70;;;29.20;1.00;;;;;;5093259;28;20718;-41
2023/04/09 09:38:55;;;;;;;5.10;4.70;;;29.20;1.00;;;;;;5093030;28;20523;-41
2023/04/09 09:41:21;;;;;;;5.40;5.00;;;28.90;1.00;;;;;;5093008;28;20434;-43
2023/04/09 09:43:47;;;;;;;5.60;5.20;;;28.40;1.00;;;;;;5093436;28;20397;-41
2023/04/09 09:46:12;;;;;;;5.67;5.20;;;28.00;1.00;;;;;;5094127;28;20450;-41
2023/04/09 09:48:38;;;;;;;6.93;6.23;;;27.50;1.00;;;;;;5093297;28;20446;-40
2023/04/09 09:51:09;;;;;;;6.10;5.60;;;27.70;1.00;;;;;;5094575;28;20317;-40
2023/04/09 09:53:36;;;;;;;6.10;5.60;;;27.00;1.00;;;;;;5094364;28;20418;-42
2023/04/09 09:56:04;;;;;;;6.40;5.90;;;26.20;1.00;;;;;;5093089;28;20515;-39
2023/04/09 09:58:39;;;;;;;6.20;5.70;;;25.40;99.90;;;;;;5093717;28;20480;-40
2023/04/09 10:01:11;;;;;;;6.40;5.90;;;24.50;99.90;;;;;;5093717;28;20445;-39
2023/04/09 10:03:38;;;;;;;6.60;6.10;;;23.50;99.90;;;;;;5094984;28;20411;-42
2023/04/09 10:06:05;;;;;;;5.40;4.90;;;22.80;99.90;;;;;;5092163;28;20747;-42
2023/04/09 10:08:33;;;;;;;4.87;4.47;;;22.40;99.90;;;;;;5093333;28;20437;-39
2023/04/09 10:11:00;;;;;;;7.93;4.90;;;22.20;99.90;;;;;;5091709;28;20734;-40
2023/04/09 10:13:50;;;;;;;4.53;4.13;;;22.00;99.90;;;;;;5092069;28;20733;-39
2023/04/09 10:16:17;;;;;;;5.40;5.00;;;21.80;99.90;;;;;;5089988;28;21088;-38
2023/04/09 10:18:43;;;;;;;6.27;5.77;;;22.10;99.90;;;;;;5090160;28;20448;-38
2023/04/09 10:21:34;;;;;;;5.97;5.47;;;22.30;99.90;;;;;;5091332;28;20426;-39
2023/04/09 10:24:04;;;;;;;6.63;5.33;;;22.60;99.90;;;;;;5092404;28;20488;-38
2023/04/09 10:26:33;;;;;;;5.93;5.43;;;23.70;99.90;;;;;;5093295;28;20441;-44
2023/04/09 10:29:07;;;;;;;7.80;7.20;;;24.40;99.90;;;;;;5094030;28;21089;-43
2023/04/09 10:31:53;;;;;;;6.67;6.20;;;25.50;99.90;;;;;;5093227;28;20496;-46
2023/04/09 10:34:26;;;;;;;5.10;4.70;;;26.50;99.90;;;;;;5094429;28;20802;-46
2023/04/09 10:37:00;;;;;;;5.30;4.80;;;26.30;1.00;;;;;;5093847;28;20477;-43
2023/04/09 10:39:28;;;;;;;4.67;4.27;;;25.80;99.90;;;;;;5092734;28;20410;-43
2023/04/09 10:41:56;;;;;;;5.07;4.20;;;25.20;99.90;;;;;;5093180;28;20701;-43
2023/04/09 10:44:26;;;;;;;5.00;4.60;;;24.70;99.90;;;;;;5093703;28;20505;-43
2023/04/09 10:46:55;;;;;;;3.90;3.60;;;24.30;99.90;;;;;;5093856;28;20446;-44
2023/04/09 10:49:25;;;;;;;4.40;4.00;;;24.00;99.90;;;;;;5092312;28;20422;-44
2023/04/09 10:52:02;;;;;;;6.60;5.10;;;23.80;99.90;;;;;;5093444;28;20537;-47
2023/04/09 10:54:33;;;;;;;6.63;6.13;;;23.80;99.90;;;;;;5093683;28;20815;-46
2023/04/09 10:57:19;;;;;;;6.03;5.53;;;24.50;99.90;;;;;;5093062;28;20478;-42
2023/04/09 10:59:54;;;;;;;6.33;5.90;;;24.70;99.90;;;;;;5095210;28;20442;-45
2023/04/09 11:02:38;;;;;;;6.23;5.73;;;24.30;99.90;;;;;;5095452;28;20421;-44
2023/04/09 11:05:16;;;;;;;5.73;5.33;;;23.90;99.90;;;;;;5097562;28;20405;-43
2023/04/09 11:08:12;;;;;;;5.57;5.17;;;23.50;99.90;;;;;;5096540;28;20977;-44
2023/04/09 11:10:40;;;;;;;5.73;5.33;;;23.20;99.90;;;;;;5078701;28;20533;-44
2023/04/09 11:13:05;;;;;;;5.83;5.43;;;22.90;99.90;;;;;;5095312;28;20430;-44
2023/04/09 11:15:34;;;;;;;5.77;5.27;;;22.80;99.90;;;;;;5078832;28;20487;-44
2023/04/09 11:18:01;;;;;;;6.23;5.73;;;22.70;99.90;;;;;;5096445;28;20474;-44
2023/04/09 11:20:26;;;;;;;6.03;5.63;;;22.60;99.90;;;;;;5096415;28;20724;-44
2023/04/09 11:22:54;;;;;;;5.87;5.37;;;22.70;99.90;;;;;;5097547;28;20426;-45
2023/04/09 11:25:28;;;;;;;4.70;4.30;;;23.20;99.90;;;;;;5097263;28;20176;-46
2023/04/09 11:27:54;;;;;;;4.13;3.83;;;25.10;99.90;;;;;;5096954;28;20434;-46
2023/04/09 11:30:20;;;;;;;4.27;3.97;;;27.80;99.90;;;;;;5096398;28;20976;-45
2023/04/09 11:32:47;;;;;;;5.30;4.90;;;30.30;1.00;;;;;;5096438;28;20445;-45
2023/04/09 11:35:14;;;;;;;4.70;4.40;;;32.70;1.00;;;;;;5094505;28;20270;-46
2023/04/09 11:37:41;;;;;;;4.70;4.40;;;34.80;1.00;;;;;;5094555;28;20505;-45
2023/04/09 11:40:17;;;;;;;4.97;4.67;;;36.40;1.00;;;;;;5095990;28;20681;-46
2023/04/09 11:42:43;;;;;;;5.23;4.90;;;37.50;1.00;;;;;;5095715;28;20420;-44
2023/04/09 11:45:10;;;;;;;6.43;6.03;;;37.10;1.00;;;;;;5096600;28;20411;-44
2023/04/09 11:47:37;;;;;;;5.90;5.50;;;35.60;1.00;;;;;;5095788;28;20444;-45
2023/04/09 11:50:04;;;;;;;5.40;5.00;;;34.00;1.00;;;;;;5095165;28;20851;-45
2023/04/09 11:52:34;;;;;;;6.10;5.70;;;32.50;99.90;;;;;;5094493;28;20422;-47
2023/04/09 11:55:03;;;;;;;5.70;5.30;;;31.30;99.90;;;;;;5096730;28;20441;-45
2023/04/09 11:57:45;;;;;;;5.43;5.03;;;30.40;99.90;;;;;;5097865;28;20481;-43
2023/04/09 12:00:15;;;;;;;4.83;4.53;;;29.70;99.90;;;;;;5097411;28;20445;-44
2023/04/09 12:02:48;;;;;;;5.47;5.13;;;29.60;99.90;;;;;;5095849;28;20731;-46
2023/04/09 12:05:22;;;;;;;5.20;4.90;;;30.50;99.90;;;;;;5097416;28;20389;-45
2023/04/09 12:07:47;;;;;;;5.37;4.97;;;32.60;99.90;;;;;;5097148;28;20672;-44
2023/04/09 12:10:13;;;;;;;5.47;5.07;;;34.40;1.00;;;;;;5097369;28;20399;-46
2023/04/09 12:12:59;;;;;;;5.33;5.03;;;35.90;1.00;;;;;;5095564;28;20192;-47
2023/04/09 12:15:29;;;;;;;5.13;4.83;;;35.70;1.00;;;;;;5095722;28;20264;-47
2023/04/09 12:17:57;;;;;;;5.90;5.40;;;36.10;1.00;;;;;;5096097;28;20640;-48
2023/04/09 12:20:40;;;;;;;5.40;5.00;;;35.60;1.00;;;;;;5096990;28;20416;-44
2023/04/09 12:23:06;;;;;;;5.67;5.17;;;36.50;1.00;;;;;;5095391;28;20423;-45
2023/04/09 12:25:34;;;;;;;6.03;5.63;;;36.90;1.00;;;;;;5095762;28;20506;-45
2023/04/09 12:28:00;;;;;;;5.07;4.70;;;36.40;1.00;;;;;;5095769;28;20469;-46
2023/04/09 12:30:26;;;;;;;5.07;4.57;;;35.10;1.00;;;;;;5095205;28;20735;-44
2023/04/09 12:32:52;;;;;;;5.30;4.97;;;34.40;1.00;;;;;;5096224;28;20442;-44
2023/04/09 12:35:18;;;;;;;4.77;4.47;;;34.90;1.00;;;;;;5094727;28;20511;-45
2023/04/09 12:37:44;;;;;;;5.10;4.70;;;34.80;1.00;;;;;;5095422;28;20542;-47
2023/04/09 12:40:12;;;;;;;4.53;4.23;;;34.90;1.00;;;;;;5097317;28;20225;-45
2023/04/09 12:42:41;;;;;;;3.83;3.53;;;35.70;1.00;;;;;;5097556;28;20466;-46
2023/04/09 12:45:13;;;;;;;5.30;4.90;;;36.90;1.00;;;;;;5095013;28;20873;-45
2023/04/09 12:47:38;;;;;;;5.23;4.83;;;37.60;1.00;;;;;;5096305;28;20800;-45
2023/04/09 12:50:05;;;;;;;6.17;5.77;;;38.30;1.00;;;;;;5093843;28;20431;-45
2023/04/09 12:52:31;;;;;;;5.97;5.57;;;37.90;1.00;;;;;;5094788;28;20553;-46